Time;durP1;ratioP1;P1;durP2;ratioP2;P2;SDS_P1;SDS_P2;PMS_P1;PMS_P2;Temp;Humidity;BMP_temperature;BMP_pressure;BME280_temperature;BME280_humidity;BME280_pressure;Samples;Min_cycle;Max_cycle;Signal;HPM_P1;HPM_P2
2022/02/27 00:00:32;;;;;;;29.83;7.57;;;;;;;0.89;100.00;99504.78;5011004;28;20561;-54
2022/02/27 00:02:57;;;;;;;28.88;7.45;;;;;;;0.89;100.00;99504.78;5011377;28;20442;-53
2022/02/27 00:05:23;;;;;;;28.95;7.40;;;;;;;1.07;100.00;99500.91;5012193;28;20068;-55
2022/02/27 00:07:48;;;;;;;26.90;7.13;;;;;;;0.88;100.00;99497.94;5012976;28;20258;-54
2022/02/27 00:10:14;;;;;;;22.98;6.85;;;;;;;1.23;100.00;99502.97;5014661;28;20471;-54
2022/02/27 00:12:39;;;;;;;20.30;5.88;;;;;;;1.00;100.00;99509.31;5009493;28;20064;-54
2022/02/27 00:15:05;;;;;;;22.80;6.85;;;;;;;1.10;100.00;99503.50;5012236;28;20021;-54
2022/02/27 00:17:31;;;;;;;26.98;6.50;;;;;;;1.24;100.00;99501.25;5011261;28;20542;-56
2022/02/27 00:19:57;;;;;;;23.92;6.50;;;;;;;1.25;100.00;99502.97;5012210;28;20087;-55
2022/02/27 00:22:22;;;;;;;27.38;7.32;;;;;;;1.24;100.00;99502.09;5008694;28;20034;-54
2022/02/27 00:24:48;;;;;;;32.35;7.53;;;;;;;1.26;100.00;99505.56;5011672;28;20136;-56
2022/02/27 00:27:13;;;;;;;20.42;5.78;;;;;;;1.29;100.00;99510.78;5011330;28;20038;-55
2022/02/27 00:29:38;;;;;;;23.05;6.38;;;;;;;1.21;100.00;99504.59;5010536;28;20029;-56
2022/02/27 00:32:04;;;;;;;24.60;7.18;;;;;;;1.31;100.00;99506.53;5010465;28;20116;-55
2022/02/27 00:34:31;;;;;;;28.63;7.50;;;;;;;1.11;100.00;99510.41;5013935;28;20140;-55
2022/02/27 00:36:56;;;;;;;27.05;7.25;;;;;;;1.02;100.00;99512.78;5010354;28;20161;-55
2022/02/27 00:39:22;;;;;;;26.42;7.00;;;;;;;0.78;100.00;99516.53;5012574;28;21041;-55
2022/02/27 00:41:47;;;;;;;26.45;7.60;;;;;;;0.83;100.00;99514.94;5010710;28;20137;-57
2022/02/27 00:44:12;;;;;;;29.27;8.05;;;;;;;0.92;100.00;99510.00;5011115;28;20024;-54
2022/02/27 00:46:38;;;;;;;26.83;7.03;;;;;;;0.92;100.00;99509.13;5012193;28;20505;-54
2022/02/27 00:49:03;;;;;;;25.80;6.47;;;;;;;1.14;100.00;99510.47;5012352;28;20450;-55
2022/02/27 00:51:28;;;;;;;23.92;6.68;;;;;;;1.11;100.00;99500.13;5009957;28;20030;-55
2022/02/27 00:53:54;;;;;;;23.48;5.22;;;;;;;1.45;100.00;99500.78;5010735;28;20034;-55
2022/02/27 00:56:19;;;;;;;27.65;6.80;;;;;;;1.28;100.00;99493.63;5011705;28;20037;-55
2022/02/27 00:58:50;;;;;;;25.88;7.70;;;;;;;1.30;100.00;99491.94;5009184;28;20065;-55
2022/02/27 01:01:19;;;;;;;20.67;6.15;;;;;;;1.18;100.00;99491.72;5011501;28;20041;-54
2022/02/27 01:03:45;;;;;;;25.63;7.65;;;;;;;1.11;100.00;99492.41;5010586;28;20029;-55
2022/02/27 01:06:11;;;;;;;21.58;6.68;;;;;;;1.09;100.00;99492.38;5010869;28;20050;-54
2022/02/27 01:08:36;;;;;;;25.48;6.63;;;;;;;1.10;100.00;99490.66;5009797;28;20052;-55
2022/02/27 01:11:02;;;;;;;27.65;6.38;;;;;;;1.53;100.00;99488.97;5009091;28;20045;-55
2022/02/27 01:13:27;;;;;;;21.60;5.32;;;;;;;1.33;100.00;99486.88;5011216;28;20074;-55
2022/02/27 01:15:53;;;;;;;24.35;7.10;;;;;;;1.76;100.00;99491.09;5010382;28;20695;-55
2022/02/27 01:18:18;;;;;;;29.38;7.22;;;;;;;1.48;100.00;99480.28;5012127;28;20557;-55
2022/02/27 01:20:43;;;;;;;25.67;7.07;;;;;;;1.41;100.00;99481.00;5010260;28;20046;-53
2022/02/27 01:23:10;;;;;;;30.77;7.45;;;;;;;1.02;100.00;99480.22;5012114;28;20037;-54
2022/02/27 01:25:35;;;;;;;24.75;6.97;;;;;;;1.30;100.00;99480.78;5012576;28;20104;-53
2022/02/27 01:28:01;;;;;;;31.33;8.52;;;;;;;0.71;100.00;99479.56;5009654;28;20033;-55
2022/02/27 01:30:26;;;;;;;28.88;7.82;;;;;;;0.79;100.00;99490.03;5010383;28;20038;-54
2022/02/27 01:32:51;;;;;;;26.50;7.75;;;;;;;0.92;100.00;99484.31;5010339;28;20484;-55
2022/02/27 01:35:17;;;;;;;26.75;7.30;;;;;;;0.69;100.00;99485.50;5008632;28;20036;-54
2022/02/27 01:37:42;;;;;;;26.58;7.43;;;;;;;0.97;100.00;99481.81;5010527;28;20084;-53
2022/02/27 01:40:08;;;;;;;24.42;7.28;;;;;;;0.81;100.00;99484.91;5008736;28;20060;-55
2022/02/27 01:42:33;;;;;;;29.27;7.80;;;;;;;0.94;100.00;99485.22;5010181;28;20044;-55
2022/02/27 01:45:02;;;;;;;25.65;6.78;;;;;;;1.22;100.00;99482.34;5010043;28;20029;-54
2022/02/27 01:47:27;;;;;;;20.52;5.90;;;;;;;1.52;100.00;99476.94;5012423;28;20037;-54
2022/02/27 01:49:53;;;;;;;26.00;6.35;;;;;;;1.47;100.00;99471.72;5009815;28;20053;-54
2022/02/27 01:52:18;;;;;;;21.85;5.70;;;;;;;1.79;100.00;99470.59;5008593;28;20049;-54
2022/02/27 01:54:44;;;;;;;25.98;5.85;;;;;;;2.12;100.00;99467.72;5008874;28;20409;-55
2022/02/27 01:57:12;;;;;;;22.88;5.22;;;;;;;1.88;100.00;99470.75;5009238;28;20196;-55
2022/02/27 01:59:38;;;;;;;21.83;5.72;;;;;;;2.07;100.00;99461.63;5009483;28;20033;-54
2022/02/27 02:02:05;;;;;;;19.77;4.97;;;;;;;2.22;100.00;99471.28;5012725;28;20041;-54
2022/02/27 02:04:31;;;;;;;25.08;6.22;;;;;;;1.64;100.00;99464.31;5011055;28;20033;-54
2022/02/27 02:06:56;;;;;;;17.85;4.95;;;;;;;2.24;100.00;99472.19;5009714;28;20025;-54
2022/02/27 02:09:22;;;;;;;19.27;4.90;;;;;;;2.69;100.00;99468.59;5009205;28;20030;-55
2022/02/27 02:11:48;;;;;;;25.33;6.50;;;;;;;2.07;100.00;99465.06;5008937;28;20186;-56
2022/02/27 02:14:14;;;;;;;18.35;5.60;;;;;;;2.31;100.00;99461.16;5010035;28;20026;-54
2022/02/27 02:16:50;;;;;;;19.77;5.72;;;;;;;2.73;100.00;99465.19;5007870;28;20132;-55
2022/02/27 02:19:18;;;;;;;25.88;6.50;;;;;;;2.07;100.00;99456.47;5011018;28;20145;-54
2022/02/27 02:21:46;;;;;;;24.70;7.50;;;;;;;1.60;100.00;99454.81;5009973;28;20045;-54
2022/02/27 02:24:13;;;;;;;25.60;7.40;;;;;;;1.47;100.00;99453.72;5009974;28;20075;-53
2022/02/27 02:26:39;;;;;;;19.80;5.78;;;;;;;1.54;100.00;99455.56;5011229;28;20040;-55
2022/02/27 02:29:06;;;;;;;28.58;8.07;;;;;;;1.17;100.00;99453.97;5009235;28;20017;-54
2022/02/27 02:31:34;;;;;;;22.95;7.38;;;;;;;1.08;100.00;99452.09;5007624;28;20037;-55
2022/02/27 02:34:14;;;;;;;22.35;6.47;;;;;;;1.22;100.00;99457.50;5009801;28;20761;-55
2022/02/27 02:36:42;;;;;;;21.90;6.13;;;;;;;1.47;100.00;99447.69;5006570;28;20103;-54
2022/02/27 02:39:09;;;;;;;29.45;6.47;;;;;;;1.50;100.00;99442.63;5010331;28;20955;-55
2022/02/27 02:41:35;;;;;;;22.48;4.82;;;;;;;2.29;100.00;99442.22;5009525;28;20049;-55
2022/02/27 02:44:01;;;;;;;18.60;5.05;;;;;;;1.68;100.00;99447.22;5011127;28;20025;-55
2022/02/27 02:46:26;;;;;;;23.90;5.63;;;;;;;1.87;100.00;99443.25;5008935;28;20072;-55
2022/02/27 02:48:51;;;;;;;20.48;5.13;;;;;;;2.21;100.00;99439.53;5008899;28;20021;-55
2022/02/27 02:51:17;;;;;;;21.95;5.60;;;;;;;1.68;100.00;99440.38;5007180;28;20641;-55
2022/02/27 02:53:43;;;;;;;21.40;6.10;;;;;;;1.80;100.00;99446.56;5008449;28;20069;-54
2022/02/27 02:56:09;;;;;;;25.13;6.05;;;;;;;1.75;100.00;99443.94;5011220;28;20029;-54
2022/02/27 02:58:39;;;;;;;28.30;8.05;;;;;;;1.46;100.00;99430.53;5012564;28;20026;-55
2022/02/27 03:01:05;;;;;;;31.42;7.68;;;;;;;0.90;100.00;99444.88;5012436;28;20407;-54
2022/02/27 03:03:31;;;;;;;22.88;6.03;;;;;;;1.53;100.00;99437.53;5011909;28;20084;-55
2022/02/27 03:05:57;;;;;;;20.58;5.72;;;;;;;1.23;100.00;99436.13;5012578;28;20050;-54
2022/02/27 03:08:22;;;;;;;18.58;5.22;;;;;;;1.57;100.00;99438.47;5015307;28;20029;-54
2022/02/27 03:10:47;;;;;;;27.73;7.05;;;;;;;1.74;100.00;99435.31;5016346;28;20508;-55
2022/02/27 03:13:13;;;;;;;28.92;7.45;;;;;;;1.64;100.00;99435.16;5013551;28;20106;-55
2022/02/27 03:15:38;;;;;;;27.00;7.45;;;;;;;0.87;100.00;99428.53;5012302;28;20044;-54
2022/02/27 03:18:04;;;;;;;22.80;6.63;;;;;;;1.64;100.00;99430.88;5011862;28;20128;-55
2022/02/27 03:20:30;;;;;;;30.83;7.55;;;;;;;1.60;100.00;99429.09;5012508;28;20038;-54
2022/02/27 03:22:56;;;;;;;30.42;6.80;;;;;;;1.50;100.00;99425.47;5013345;28;20668;-55
2022/02/27 03:25:22;;;;;;;29.33;7.93;;;;;;;1.13;100.00;99426.47;5016486;28;20033;-54
2022/02/27 03:27:48;;;;;;;23.60;6.38;;;;;;;1.54;100.00;99429.84;5014167;28;20034;-54
2022/02/27 03:30:14;;;;;;;19.60;5.00;;;;;;;1.96;100.00;99430.56;5012805;28;20091;-56
2022/02/27 03:32:44;;;;;;;22.27;5.60;;;;;;;1.84;100.00;99432.91;5013717;28;20022;-54
2022/02/27 03:35:09;;;;;;;22.13;5.53;;;;;;;1.98;100.00;99428.00;5013509;28;20025;-54
2022/02/27 03:37:34;;;;;;;20.83;6.13;;;;;;;2.38;100.00;99431.22;5013636;28;20029;-54
2022/02/27 03:40:00;;;;;;;30.00;8.05;;;;;;;1.46;100.00;99430.53;5010715;28;20062;-56
2022/02/27 03:42:25;;;;;;;22.17;5.30;;;;;;;1.77;100.00;99431.09;5010296;28;20103;-54
2022/02/27 03:44:50;;;;;;;36.15;8.45;;;;;;;1.60;100.00;99429.09;5010438;28;20030;-54
2022/02/27 03:47:16;;;;;;;21.67;6.43;;;;;;;1.22;100.00;99418.94;5012346;28;20091;-54
2022/02/27 03:49:41;;;;;;;27.15;5.97;;;;;;;1.86;100.00;99426.09;5010792;28;20021;-54
2022/02/27 03:52:06;;;;;;;21.20;5.65;;;;;;;2.00;100.00;99423.75;5012122;28;20056;-54
2022/02/27 03:54:32;;;;;;;25.60;7.90;;;;;;;0.83;100.00;99419.91;5012705;28;20048;-55
2022/02/27 03:56:57;;;;;;;23.65;6.15;;;;;;;1.17;100.00;99414.56;5010440;28;20040;-55
2022/02/27 03:59:22;;;;;;;21.13;5.35;;;;;;;1.99;100.00;99425.47;5011776;28;20548;-54
2022/02/27 04:01:48;;;;;;;13.85;4.57;;;;;;;1.80;100.00;99420.84;5012183;28;20503;-54
2022/02/27 04:04:13;;;;;;;21.48;5.47;;;;;;;1.88;100.00;99424.44;5012652;28;20021;-54
2022/02/27 04:06:38;;;;;;;19.95;5.82;;;;;;;1.64;100.00;99428.31;5009887;28;20053;-55
2022/02/27 04:09:04;;;;;;;20.70;5.50;;;;;;;1.70;100.00;99427.53;5011835;28;20025;-53
2022/02/27 04:11:29;;;;;;;31.88;6.60;;;;;;;1.71;100.00;99425.00;5012362;28;20037;-54
2022/02/27 04:13:54;;;;;;;23.55;6.70;;;;;;;1.73;100.00;99441.31;5012347;28;20037;-55
2022/02/27 04:16:20;;;;;;;24.20;5.43;;;;;;;1.96;100.00;99427.97;5012272;28;20689;-55
2022/02/27 04:18:45;;;;;;;27.42;6.85;;;;;;;1.68;100.00;99432.66;5014408;28;20033;-54
2022/02/27 04:21:11;;;;;;;22.48;6.10;;;;;;;1.79;100.00;99443.13;5012652;28;20065;-55
2022/02/27 04:23:37;;;;;;;24.63;6.22;;;;;;;1.85;100.00;99434.66;5011776;28;20092;-55
2022/02/27 04:26:02;;;;;;;19.00;5.38;;;;;;;2.25;100.00;99438.75;5014785;28;20037;-54
2022/02/27 04:28:28;;;;;;;27.77;7.55;;;;;;;1.33;100.00;99435.44;5009907;28;20155;-55
2022/02/27 04:30:53;;;;;;;21.48;5.47;;;;;;;1.63;100.00;99442.00;5012004;28;20231;-54
2022/02/27 04:33:18;;;;;;;23.42;5.97;;;;;;;1.78;100.00;99443.09;5011715;28;20034;-54
2022/02/27 04:35:44;;;;;;;24.75;6.65;;;;;;;1.73;100.00;99443.91;5011502;28;20052;-55
2022/02/27 04:38:09;;;;;;;23.73;6.43;;;;;;;1.51;100.00;99444.38;5010939;28;20827;-53
2022/02/27 04:40:35;;;;;;;21.52;5.72;;;;;;;1.68;100.00;99445.53;5011293;28;20057;-55
2022/02/27 04:43:03;;;;;;;17.80;5.03;;;;;;;2.07;100.00;99446.19;5012171;28;20034;-54
2022/02/27 04:45:29;;;;;;;23.17;7.07;;;;;;;1.81;100.00;99451.75;5011165;28;20093;-55
2022/02/27 04:47:55;;;;;;;20.45;5.35;;;;;;;1.73;100.00;99454.19;5013251;28;20072;-54
2022/02/27 04:50:21;;;;;;;16.92;5.15;;;;;;;1.92;100.00;99451.94;5011629;28;20033;-54
2022/02/27 04:52:46;;;;;;;23.08;6.50;;;;;;;1.79;100.00;99444.84;5015348;28;20030;-54
2022/02/27 04:55:12;;;;;;;32.40;7.93;;;;;;;1.47;100.00;99448.56;5012382;28;20040;-54
2022/02/27 04:57:37;;;;;;;21.13;5.28;;;;;;;1.98;100.00;99446.03;5009399;28;20397;-55
2022/02/27 05:00:07;;;;;;;23.13;5.40;;;;;;;1.92;100.00;99446.78;5013297;28;20392;-55
2022/02/27 05:02:33;;;;;;;21.65;5.43;;;;;;;2.16;100.00;99446.31;5012137;28;20053;-57
2022/02/27 05:04:58;;;;;;;28.65;7.80;;;;;;;1.78;100.00;99453.41;5011229;28;20026;-54
2022/02/27 05:07:23;;;;;;;22.55;6.10;;;;;;;1.96;100.00;99453.72;5009682;28;20113;-55
2022/02/27 05:09:49;;;;;;;21.20;6.30;;;;;;;1.73;100.00;99455.91;5011793;28;20297;-54
2022/02/27 05:12:14;;;;;;;23.80;6.10;;;;;;;1.99;100.00;99446.06;5009900;28;20509;-54
2022/02/27 05:14:40;;;;;;;25.45;7.88;;;;;;;1.88;100.00;99453.59;5008035;28;20708;-55
2022/02/27 05:17:05;;;;;;;29.80;7.60;;;;;;;1.31;100.00;99447.41;5007546;28;20046;-55
2022/02/27 05:19:30;;;;;;;17.30;4.68;;;;;;;1.98;100.00;99461.47;5009470;28;20068;-54
2022/02/27 05:21:56;;;;;;;22.92;5.78;;;;;;;1.84;100.00;99464.69;5010860;28;20036;-55
2022/02/27 05:24:21;;;;;;;20.65;5.40;;;;;;;2.23;100.00;99462.75;5014524;28;20026;-54
2022/02/27 05:26:46;;;;;;;26.25;6.53;;;;;;;1.79;100.00;99468.00;5010106;28;20731;-54
2022/02/27 05:29:12;;;;;;;27.65;6.47;;;;;;;1.87;100.00;99474.13;5010784;28;20025;-55
2022/02/27 05:31:39;;;;;;;27.17;7.55;;;;;;;1.97;100.00;99465.75;5009346;28;20045;-54
2022/02/27 05:34:06;;;;;;;23.23;7.18;;;;;;;2.01;100.00;99474.41;5009938;28;20049;-54
2022/02/27 05:36:31;;;;;;;32.55;9.30;;;;;;;1.89;100.00;99482.75;5010935;28;20030;-54
2022/02/27 05:38:56;;;;;;;33.13;9.77;;;;;;;1.93;100.00;99479.41;5011906;28;20029;-55
2022/02/27 05:41:22;;;;;;;43.28;13.30;;;;;;;1.02;100.00;99480.22;5009663;28;20054;-54
2022/02/27 05:43:47;;;;;;;19.17;5.00;;;;;;;2.55;100.00;99490.69;5009220;28;20073;-54
2022/02/27 05:46:12;;;;;;;27.80;8.35;;;;;;;1.94;100.00;99494.00;5011019;28;20033;-55
2022/02/27 05:48:38;;;;;;;20.63;5.15;;;;;;;2.00;100.00;99486.38;5011247;28;20124;-54
2022/02/27 05:51:03;;;;;;;20.30;6.15;;;;;;;2.36;100.00;99489.56;5011820;28;20478;-54
2022/02/27 05:53:28;;;;;;;21.15;6.88;;;;;;;1.80;100.00;99496.34;5008230;28;20029;-54
2022/02/27 05:55:56;;;;;;;28.88;6.82;;;;;;;1.58;100.00;99492.50;5009034;28;20045;-55
2022/02/27 05:58:25;;;;;;;22.08;5.53;;;;;;;2.30;100.00;99490.31;5009389;28;20065;-54
2022/02/27 06:00:51;;;;;;;26.83;6.65;;;;;;;1.60;100.00;99495.97;5009497;28;20772;-55
2022/02/27 06:03:18;;;;;;;21.42;5.68;;;;;;;2.01;100.00;99498.41;5010235;28;20034;-54
2022/02/27 06:05:45;;;;;;;21.65;5.18;;;;;;;2.24;100.00;99505.66;5010865;28;20084;-54
2022/02/27 06:08:11;;;;;;;25.80;7.60;;;;;;;1.48;100.00;99506.00;5009859;28;20091;-54
2022/02/27 06:10:36;;;;;;;20.48;6.55;;;;;;;1.81;100.00;99508.34;5011274;28;20048;-54
2022/02/27 06:13:02;;;;;;;19.55;5.50;;;;;;;1.73;100.00;99508.22;5010778;28;20026;-55
2022/02/27 06:15:27;;;;;;;20.83;6.05;;;;;;;1.84;100.00;99511.00;5009634;28;20113;-56
2022/02/27 06:17:52;;;;;;;25.35;6.05;;;;;;;2.26;100.00;99509.13;5009121;28;20045;-54
2022/02/27 06:20:18;;;;;;;27.48;7.03;;;;;;;2.21;100.00;99505.63;5009499;28;20024;-55
2022/02/27 06:22:46;;;;;;;24.23;6.90;;;;;;;1.99;100.00;99518.13;5010939;28;20022;-55
2022/02/27 06:25:13;;;;;;;20.38;5.75;;;;;;;2.63;100.00;99514.88;5007810;28;20033;-55
2022/02/27 06:27:42;;;;;;;18.73;5.55;;;;;;;2.46;100.00;99515.50;5011185;28;20025;-54
2022/02/27 06:30:12;;;;;;;29.63;7.03;;;;;;;2.22;100.00;99521.06;5006965;28;20533;-55
2022/02/27 06:32:38;;;;;;;28.88;7.90;;;;;;;2.41;100.00;99524.84;5011423;28;20029;-55
2022/02/27 06:35:05;;;;;;;23.95;6.45;;;;;;;2.44;100.00;99522.28;5009008;28;20036;-54
2022/02/27 06:37:31;;;;;;;29.20;8.35;;;;;;;2.84;100.00;99530.66;5009992;28;20032;-55
2022/02/27 06:39:57;;;;;;;28.50;7.63;;;;;;;3.16;100.00;99526.78;5010147;28;20025;-54
2022/02/27 06:42:22;;;;;;;43.97;9.48;;;;;;;3.37;100.00;99526.22;5010855;28;20040;-54
2022/02/27 06:44:48;;;;;;;238.07;15.10;;;;;;;4.33;100.00;99528.94;5011084;28;20462;-54
2022/02/27 06:47:13;;;;;;;33.78;8.63;;;;;;;5.28;100.00;99533.88;5007678;28;20025;-55
2022/02/27 06:49:38;;;;;;;425.88;20.50;;;;;;;4.33;100.00;99528.94;5010252;28;20018;-55
2022/02/27 06:52:04;;;;;;;101.63;9.75;;;;;;;5.12;100.00;99526.91;5009881;28;20069;-54
2022/02/27 06:54:29;;;;;;;25.13;7.57;;;;;;;6.29;100.00;99517.78;5011048;28;20125;-55
2022/02/27 06:56:54;;;;;;;23.73;7.35;;;;;;;7.37;100.00;99520.25;5008796;28;20045;-55
2022/02/27 06:59:20;;;;;;;24.30;7.82;;;;;;;6.69;100.00;99523.00;5009030;28;20038;-55
2022/02/27 07:01:45;;;;;;;23.13;7.70;;;;;;;6.48;100.00;99526.44;5009680;28;20041;-56
2022/02/27 07:04:10;;;;;;;20.33;6.70;;;;;;;6.05;100.00;99533.31;5009107;28;20034;-56
2022/02/27 07:06:36;;;;;;;26.25;7.25;;;;;;;5.40;100.00;99530.47;5005451;28;20121;-54
2022/02/27 07:09:01;;;;;;;20.88;7.30;;;;;;;5.86;100.00;99533.22;5011516;28;20068;-55
2022/02/27 07:11:27;;;;;;;22.67;7.05;;;;;;;5.29;100.00;99537.34;5009604;28;20128;-54
2022/02/27 07:13:52;;;;;;;19.70;7.20;;;;;;;5.08;100.00;99545.84;5009343;28;20037;-55
2022/02/27 07:16:22;;;;;;;19.90;6.85;;;;;;;5.59;100.00;99542.66;5010319;28;20046;-54
2022/02/27 07:18:53;;;;;;;27.85;7.82;;;;;;;3.54;100.00;99554.78;5009350;28;20034;-54
2022/02/27 07:21:19;;;;;;;21.42;7.30;;;;;;;3.94;100.00;99556.09;5007516;28;20129;-55
2022/02/27 07:23:44;;;;;;;27.77;7.93;;;;;;;3.93;100.00;99569.84;5011113;28;20112;-54
2022/02/27 07:26:09;;;;;;;22.40;7.40;;;;;;;3.95;100.00;99570.75;5006703;28;20036;-54
2022/02/27 07:28:35;;;;;;;21.40;7.13;;;;;;;3.80;100.00;99563.69;5008795;28;20554;-55
2022/02/27 07:31:00;;;;;;;24.42;6.88;;;;;;;3.43;100.00;99567.53;5007432;28;20052;-56
2022/02/27 07:33:25;;;;;;;21.65;6.45;;;;;;;3.08;100.00;99580.81;5010822;28;20030;-55
2022/02/27 07:35:51;;;;;;;24.73;7.10;;;;;;;4.29;100.00;99577.97;5007353;28;20041;-55
2022/02/27 07:38:16;;;;;;;24.55;6.57;;;;;;;7.25;100.00;99567.00;5008555;28;20021;-55
2022/02/27 07:40:42;;;;;;;21.63;6.13;;;;;;;6.34;100.00;99574.81;5010097;28;20499;-57
2022/02/27 07:43:07;;;;;;;19.80;5.78;;;;;;;7.40;100.00;99569.53;5013314;28;20098;-55
2022/02/27 07:45:32;;;;;;;24.05;6.72;;;;;;;9.20;100.00;99568.38;5013151;28;20034;-55
2022/02/27 07:47:58;;;;;;;25.52;6.75;;;;;;;10.23;94.23;99567.09;5011754;28;20029;-54
2022/02/27 07:50:24;;;;;;;19.48;6.63;;;;;;;9.84;99.47;99564.16;5010955;28;20032;-54
2022/02/27 07:52:49;;;;;;;20.25;6.50;;;;;;;11.11;84.55;99578.75;5013611;28;20488;-54
2022/02/27 07:55:15;;;;;;;22.13;6.43;;;;;;;10.92;87.75;99575.63;5012119;28;20048;-55
2022/02/27 07:57:40;;;;;;;17.35;6.03;;;;;;;11.60;74.64;99576.97;5013110;28;20029;-54
2022/02/27 08:00:06;;;;;;;17.30;5.97;;;;;;;9.85;67.89;99580.66;5010039;28;20111;-55
2022/02/27 08:02:32;;;;;;;19.20;6.25;;;;;;;11.42;69.45;99582.56;5013778;28;20128;-55
2022/02/27 08:04:57;;;;;;;22.08;6.97;;;;;;;10.61;70.66;99588.31;5010679;28;20054;-55
2022/02/27 08:07:23;;;;;;;19.42;6.85;;;;;;;11.41;67.55;99583.44;5011094;28;20041;-54
2022/02/27 08:09:49;;;;;;;17.77;6.43;;;;;;;11.49;64.02;99578.94;5013534;28;20156;-55
2022/02/27 08:12:14;;;;;;;19.17;6.53;;;;;;;12.51;67.35;99573.25;5009899;28;20038;-54
2022/02/27 08:14:39;;;;;;;15.75;5.60;;;;;;;11.96;63.06;99574.50;5010141;28;20052;-54
2022/02/27 08:17:05;;;;;;;15.38;6.18;;;;;;;10.18;61.28;99581.06;5009599;28;20041;-55
2022/02/27 08:19:30;;;;;;;15.70;5.78;;;;;;;13.61;56.19;99576.56;5012139;28;20025;-54
2022/02/27 08:21:55;;;;;;;13.52;5.45;;;;;;;9.86;59.44;99578.91;5010390;28;20176;-53
2022/02/27 08:24:21;;;;;;;15.52;6.07;;;;;;;11.13;57.45;99576.13;5010698;28;20026;-54
2022/02/27 08:26:46;;;;;;;17.15;6.20;;;;;;;11.92;57.31;99578.09;5011108;28;20129;-54
2022/02/27 08:29:12;;;;;;;21.75;6.00;;;;;;;11.04;57.70;99576.28;5011860;28;20025;-53
2022/02/27 08:31:42;;;;;;;16.88;6.43;;;;;;;13.11;55.87;99569.16;5012148;28;20096;-55
2022/02/27 08:34:07;;;;;;;20.65;6.68;;;;;;;13.46;52.62;99577.00;5008616;28;20095;-54
2022/02/27 08:36:33;;;;;;;17.50;5.97;;;;;;;14.46;48.50;99567.03;5010641;28;20042;-54
2022/02/27 08:38:59;;;;;;;13.45;5.15;;;;;;;12.24;49.81;99579.13;5011186;28;20033;-53
2022/02/27 08:41:26;;;;;;;11.82;4.90;;;;;;;12.54;49.68;99575.81;5011697;28;20407;-54
2022/02/27 08:43:52;;;;;;;14.70;5.45;;;;;;;12.40;52.32;99575.28;5011613;28;20021;-55
2022/02/27 08:46:18;;;;;;;14.05;5.25;;;;;;;14.74;46.29;99568.81;5010945;28;20037;-54
2022/02/27 08:48:43;;;;;;;15.80;5.68;;;;;;;14.25;45.64;99570.34;5012069;28;20089;-54
2022/02/27 08:51:08;;;;;;;13.48;5.38;;;;;;;13.69;48.31;99571.09;5011550;28;20034;-54
2022/02/27 08:53:34;;;;;;;12.18;5.15;;;;;;;14.28;45.55;99572.88;5008187;28;20029;-55
2022/02/27 08:55:59;;;;;;;12.00;4.72;;;;;;;14.15;45.08;99569.78;5009688;28;20085;-54
2022/02/27 08:58:24;;;;;;;12.35;5.15;;;;;;;11.50;49.06;99580.66;5011966;28;20044;-55
2022/02/27 09:00:50;;;;;;;13.77;5.25;;;;;;;9.97;52.42;99579.63;5011870;28;20082;-55
2022/02/27 09:03:15;;;;;;;16.52;5.88;;;;;;;10.65;52.87;99576.09;5011332;28;20080;-55
2022/02/27 09:05:43;;;;;;;10.98;4.47;;;;;;;9.96;51.45;99576.19;5011577;28;20132;-54
2022/02/27 09:08:08;;;;;;;14.60;5.00;;;;;;;10.61;50.34;99577.88;5011349;28;20129;-54
2022/02/27 09:10:34;;;;;;;13.95;4.95;;;;;;;12.17;47.85;99577.56;5003682;28;20063;-55
2022/02/27 09:12:59;;;;;;;16.75;4.82;;;;;;;8.81;50.94;99580.03;5022616;28;20395;-55
2022/02/27 09:15:25;;;;;;;12.70;4.45;;;;;;;10.72;48.14;99568.13;5009428;28;20045;-55
2022/02/27 09:17:51;;;;;;;13.57;4.88;;;;;;;11.21;45.79;99571.59;5008793;28;20132;-55
2022/02/27 09:20:16;;;;;;;14.35;4.85;;;;;;;10.55;47.73;99560.56;5007250;28;20027;-56
2022/02/27 09:22:42;;;;;;;14.27;4.65;;;;;;;11.93;46.61;99570.22;5011815;28;20101;-55
2022/02/27 09:25:08;;;;;;;13.55;4.55;;;;;;;11.88;46.56;99558.09;5011766;28;20034;-56
2022/02/27 09:27:33;;;;;;;13.40;4.80;;;;;;;10.49;47.43;99560.66;5010802;28;20045;-55
2022/02/27 09:29:58;;;;;;;13.95;4.85;;;;;;;11.44;46.00;99562.50;5007503;28;20044;-56
2022/02/27 09:32:24;;;;;;;14.20;4.72;;;;;;;11.23;44.84;99572.47;5010123;28;20048;-54
2022/02/27 09:34:49;;;;;;;14.27;4.88;;;;;;;11.71;45.97;99561.94;5009948;28;20129;-55
2022/02/27 09:37:14;;;;;;;14.15;4.78;;;;;;;10.70;45.00;99579.47;5008812;28;20030;-55
2022/02/27 09:39:40;;;;;;;12.57;4.38;;;;;;;12.35;44.47;99566.66;5010609;28;20025;-55
2022/02/27 09:42:05;;;;;;;12.23;4.22;;;;;;;11.43;43.71;99560.75;5009371;28;20050;-55
2022/02/27 09:44:40;;;;;;;15.38;4.47;;;;;;;9.99;43.82;99559.63;5011099;28;20030;-55
2022/02/27 09:47:16;;;;;;;12.50;4.60;;;;;;;11.02;43.38;99558.03;5007078;28;20033;-54
2022/02/27 09:49:45;;;;;;;12.85;4.18;;;;;;;9.90;44.66;99541.50;5010038;28;20041;-55
2022/02/27 09:52:12;;;;;;;13.15;4.53;;;;;;;10.90;43.53;99551.28;5009959;28;20030;-54
2022/02/27 09:54:38;;;;;;;16.05;4.93;;;;;;;10.87;43.26;99551.34;5008845;28;20025;-56
2022/02/27 09:57:03;;;;;;;12.70;4.50;;;;;;;10.74;44.29;99555.06;5007157;28;20768;-55
2022/02/27 09:59:29;;;;;;;11.93;4.10;;;;;;;12.19;41.83;99560.09;5009652;28;20065;-55
2022/02/27 10:01:59;;;;;;;14.60;4.50;;;;;;;11.92;42.10;99546.72;5010517;28;20120;-55
2022/02/27 10:04:25;;;;;;;12.63;4.30;;;;;;;12.35;41.82;99545.72;5007961;28;20483;-55
2022/02/27 10:06:51;;;;;;;18.00;5.45;;;;;;;11.37;43.12;99557.38;5010000;28;20052;-55
2022/02/27 10:09:24;;;;;;;14.55;4.75;;;;;;;13.45;41.43;99549.94;5007874;28;20028;-56
2022/02/27 10:11:50;;;;;;;18.02;5.43;;;;;;;11.54;46.75;99558.78;5009526;28;20132;-56
2022/02/27 10:14:28;;;;;;;10.73;4.47;;;;;;;11.68;44.89;99554.16;5009003;28;20433;-56
2022/02/27 10:17:03;;;;;;;17.00;5.55;;;;;;;11.27;46.20;99563.69;5008982;28;20415;-55
2022/02/27 10:19:29;;;;;;;11.98;4.75;;;;;;;11.83;46.49;99557.34;5009333;28;20460;-56
2022/02/27 10:21:54;;;;;;;15.60;5.22;;;;;;;12.26;44.76;99564.25;5009232;28;20095;-55
2022/02/27 10:24:20;;;;;;;13.75;5.03;;;;;;;12.43;44.00;99556.88;5009499;28;20037;-55
2022/02/27 10:26:47;;;;;;;13.35;5.13;;;;;;;12.71;43.59;99567.53;5007569;28;20061;-55
2022/02/27 10:29:14;;;;;;;14.23;4.68;;;;;;;12.00;42.82;99552.63;5009240;28;20030;-56
2022/02/27 10:31:45;;;;;;;11.55;4.53;;;;;;;11.31;46.66;99554.03;5009483;28;20041;-55
2022/02/27 10:34:24;;;;;;;14.40;5.57;;;;;;;11.43;44.58;99556.38;5011902;28;20128;-55
2022/02/27 10:37:15;;;;;;;15.48;5.07;;;;;;;12.66;43.48;99552.84;5007788;28;20049;-56
2022/02/27 10:39:46;;;;;;;15.50;5.00;;;;;;;11.41;44.15;99565.16;5011777;28;20029;-55
2022/02/27 10:42:30;;;;;;;14.48;5.30;;;;;;;10.79;43.83;99571.50;5008946;28;20046;-56
2022/02/27 10:45:00;;;;;;;13.20;5.20;;;;;;;11.05;43.97;99562.34;5009236;28;20036;-55
2022/02/27 10:47:31;;;;;;;11.45;4.57;;;;;;;10.81;44.60;99559.28;5009158;28;20452;-56
2022/02/27 10:49:58;;;;;;;11.13;4.43;;;;;;;11.03;45.71;99544.09;5009614;28;20021;-56
2022/02/27 10:52:29;;;;;;;14.70;4.82;;;;;;;9.55;46.41;99540.22;5009802;28;20038;-56
2022/02/27 10:54:59;;;;;;;16.75;5.50;;;;;;;10.57;45.47;99542.28;5009558;28;20116;-55
2022/02/27 10:57:30;;;;;;;18.15;5.20;;;;;;;9.76;46.40;99526.91;5007374;28;20080;-55
2022/02/27 11:00:02;;;;;;;14.57;5.30;;;;;;;10.00;45.82;99524.88;5007565;28;20901;-55
2022/02/27 11:02:29;;;;;;;11.57;4.70;;;;;;;10.54;45.08;99514.47;5010048;28;20524;-56
2022/02/27 11:04:56;;;;;;;18.50;5.50;;;;;;;10.12;46.77;99522.06;5008522;28;20053;-55
2022/02/27 11:07:22;;;;;;;13.57;4.85;;;;;;;10.44;45.20;99517.25;5009101;28;20038;-55
2022/02/27 11:09:49;;;;;;;12.15;4.43;;;;;;;9.97;47.73;99506.66;5008853;28;20033;-55
2022/02/27 11:12:14;;;;;;;14.73;4.78;;;;;;;11.17;44.39;99515.09;5012092;28;20072;-56
2022/02/27 11:14:42;;;;;;;13.07;5.22;;;;;;;10.54;43.69;99530.13;5011532;28;20049;-54
2022/02/27 11:17:07;;;;;;;14.70;5.03;;;;;;;10.73;43.67;99514.16;5014149;28;20843;-56
2022/02/27 11:19:33;;;;;;;14.93;5.07;;;;;;;10.67;46.06;99509.06;5012885;28;20117;-55